createdAt,value
2023-09-20T00:01:44.007Z,21.30
2023-09-20T00:04:31.062Z,21.30
2023-09-20T00:07:17.551Z,21.40
2023-09-20T00:10:05.733Z,21.50
2023-09-20T00:12:51.848Z,21.50
2023-09-20T00:15:40.188Z,21.50
2023-09-20T00:18:25.830Z,21.40
2023-09-20T00:21:12.437Z,21.30
2023-09-20T00:23:58.512Z,21.50
2023-09-20T00:26:43.846Z,21.30
2023-09-20T00:29:29.875Z,21.30
2023-09-20T00:32:18.326Z,21.50
2023-09-20T00:35:04.484Z,21.40
2023-09-20T00:37:50.388Z,21.10
2023-09-20T00:40:36.750Z,21.30
2023-09-20T00:43:24.748Z,21.00
2023-09-20T00:46:12.762Z,20.70
2023-09-20T00:49:00.948Z,20.60
2023-09-20T00:51:48.453Z,20.50
2023-09-20T00:54:34.603Z,20.70
2023-09-20T00:57:20.716Z,20.60
2023-09-20T01:00:21.281Z,20.60
2023-09-20T01:03:08.031Z,20.60
2023-09-20T01:05:55.805Z,20.20
2023-09-20T01:08:41.826Z,20.40
2023-09-20T01:11:28.758Z,20.40
2023-09-20T01:14:14.426Z,20.40
2023-09-20T01:16:59.821Z,20.40
2023-09-20T01:19:46.150Z,20.20
2023-09-20T01:22:33.276Z,20.40
2023-09-20T01:25:23.546Z,20.40
2023-09-20T01:28:11.571Z,20.50
2023-09-20T01:30:59.450Z,20.30
2023-09-20T01:33:45.205Z,20.30
2023-09-20T01:36:31.302Z,20.30
2023-09-20T01:39:18.592Z,20.40
2023-09-20T01:42:05.060Z,20.20
2023-09-20T01:44:50.698Z,20.20
2023-09-20T01:47:39.249Z,20.10
2023-09-20T01:50:25.822Z,20.20
2023-09-20T01:53:12.619Z,20.10
2023-09-20T01:56:01.558Z,20.10
2023-09-20T01:58:47.680Z,19.80
2023-09-20T02:01:33.080Z,19.90
2023-09-20T02:04:22.100Z,19.90
2023-09-20T02:07:09.291Z,19.80
2023-09-20T02:09:55.064Z,19.90
2023-09-20T02:12:46.777Z,20.00
2023-09-20T02:15:35.702Z,20.00
2023-09-20T02:18:23.480Z,20.00
2023-09-20T02:21:09.429Z,19.90
2023-09-20T02:23:55.909Z,19.80
2023-09-20T02:26:42.049Z,19.70
2023-09-20T02:29:29.083Z,19.80
2023-09-20T02:32:14.773Z,19.70
2023-09-20T02:35:04.563Z,19.80
2023-09-20T02:37:50.695Z,19.80
2023-09-20T02:40:38.153Z,19.80
2023-09-20T02:43:25.182Z,19.90
2023-09-20T02:46:14.481Z,19.80
2023-09-20T02:49:00.196Z,19.90
2023-09-20T02:51:46.899Z,19.90
2023-09-20T02:54:33.995Z,20.00
2023-09-20T02:57:19.561Z,20.00
2023-09-20T03:00:16.410Z,19.80
2023-09-20T03:03:08.830Z,19.60
2023-09-20T03:05:54.715Z,19.60
2023-09-20T03:08:45.889Z,19.60
2023-09-20T03:11:36.994Z,19.60
2023-09-20T03:14:24.745Z,19.60
2023-09-20T03:17:11.451Z,19.40
2023-09-20T03:19:59.793Z,19.50
2023-09-20T03:22:47.438Z,19.50
2023-09-20T03:25:43.941Z,19.60
2023-09-20T03:28:58.254Z,19.90
2023-09-20T03:31:45.779Z,19.80
2023-09-20T03:34:31.721Z,19.90
2023-09-20T03:37:19.493Z,20.00
2023-09-20T03:40:12.173Z,20.00
2023-09-20T03:42:58.447Z,20.20
2023-09-20T03:45:44.086Z,20.20
2023-09-20T03:48:29.997Z,20.00
2023-09-20T03:51:16.721Z,20.00
2023-09-20T03:54:04.211Z,20.00
2023-09-20T03:56:50.046Z,20.10
2023-09-20T03:59:35.718Z,20.20
2023-09-20T04:02:24.747Z,20.30
2023-09-20T04:05:16.224Z,20.50
2023-09-20T04:08:07.586Z,20.50
2023-09-20T04:10:55.726Z,20.40
2023-09-20T04:13:42.095Z,20.20
2023-09-20T04:16:28.445Z,20.10
2023-09-20T04:19:15.444Z,19.90
2023-09-20T04:22:05.303Z,19.90
2023-09-20T04:24:51.179Z,19.70
2023-09-20T04:27:38.283Z,19.60
2023-09-20T04:30:24.407Z,19.80
2023-09-20T04:33:11.728Z,19.70
2023-09-20T04:36:02.058Z,19.80
2023-09-20T04:38:48.925Z,19.90
2023-09-20T04:41:36.021Z,19.80
2023-09-20T04:44:23.213Z,19.70
2023-09-20T04:47:14.199Z,19.60
2023-09-20T04:50:00.360Z,19.70
2023-09-20T04:52:48.196Z,19.90
2023-09-20T04:55:35.680Z,19.80
2023-09-20T04:58:21.831Z,19.60
2023-09-20T05:01:15.989Z,19.60
2023-09-20T05:04:01.929Z,19.50
2023-09-20T05:06:48.120Z,19.30
2023-09-20T05:09:35.586Z,19.30
2023-09-20T05:12:22.866Z,19.20
2023-09-20T05:15:10.393Z,19.30
2023-09-20T05:17:57.523Z,19.40
2023-09-20T05:20:46.027Z,19.50
2023-09-20T05:23:31.834Z,19.10
2023-09-20T05:26:19.725Z,19.10
2023-09-20T05:29:05.764Z,19.20
2023-09-20T05:31:51.801Z,19.40
2023-09-20T05:34:40.708Z,19.50
2023-09-20T05:37:27.628Z,19.30
2023-09-20T05:40:18.455Z,19.40
2023-09-20T05:43:05.480Z,19.50
2023-09-20T05:45:51.552Z,19.40
2023-09-20T05:48:40.183Z,19.40
2023-09-20T05:51:29.606Z,19.50
2023-09-20T05:54:16.448Z,19.40
2023-09-20T05:57:01.992Z,19.60
2023-09-20T05:59:47.429Z,19.70
2023-09-20T06:02:34.745Z,20.30
2023-09-20T06:05:20.773Z,21.30
2023-09-20T06:08:08.325Z,21.70
2023-09-20T06:10:54.746Z,22.60
2023-09-20T06:13:40.456Z,23.20
2023-09-20T06:16:26.344Z,23.40
2023-09-20T06:19:14.484Z,23.40
2023-09-20T06:22:00.864Z,23.50
2023-09-20T06:24:47.926Z,23.40
2023-09-20T06:27:34.049Z,23.00
2023-09-20T06:30:20.042Z,22.70
2023-09-20T06:33:06.065Z,22.90
2023-09-20T06:35:52.200Z,23.60
2023-09-20T06:38:38.109Z,24.40
2023-09-20T06:41:26.376Z,24.80
2023-09-20T06:44:14.038Z,24.60
2023-09-20T06:47:00.080Z,25.40
2023-09-20T06:49:45.990Z,24.90
2023-09-20T06:52:31.821Z,24.20
2023-09-20T06:55:18.808Z,23.90
2023-09-20T06:58:19.851Z,23.80
2023-09-20T07:01:07.754Z,24.00
2023-09-20T07:03:55.695Z,24.70
2023-09-20T07:06:43.647Z,25.30
2023-09-20T07:09:32.894Z,26.00
2023-09-20T07:12:18.745Z,26.40
2023-09-20T07:15:10.251Z,27.00
2023-09-20T07:18:12.533Z,26.40
2023-09-20T07:20:58.585Z,26.30
2023-09-20T07:23:44.646Z,26.50
2023-09-20T07:26:32.518Z,25.90
2023-09-20T07:29:18.949Z,25.60
2023-09-20T07:32:06.577Z,24.90
2023-09-20T07:35:01.501Z,24.70
2023-09-20T07:37:48.570Z,24.80
2023-09-20T07:40:35.570Z,25.20
2023-09-20T07:43:28.501Z,25.00
2023-09-20T07:46:21.393Z,24.50
2023-09-20T07:49:11.225Z,24.40
2023-09-20T07:51:56.788Z,24.10
2023-09-20T07:54:43.719Z,24.60
2023-09-20T07:57:29.513Z,24.60
2023-09-20T08:00:16.996Z,24.90
2023-09-20T08:03:03.442Z,24.90
2023-09-20T08:05:54.086Z,24.90
2023-09-20T08:08:40.369Z,24.80
2023-09-20T08:11:27.063Z,24.40
2023-09-20T08:14:13.140Z,24.40
2023-09-20T08:17:17.219Z,24.30
2023-09-20T08:20:08.222Z,24.40
2023-09-20T08:23:14.340Z,24.10
2023-09-20T08:26:18.506Z,23.90
2023-09-20T08:29:23.110Z,23.80
2023-09-20T08:32:27.326Z,23.80
2023-09-20T08:35:31.434Z,23.80
2023-09-20T08:38:37.249Z,24.20
2023-09-20T08:41:41.443Z,24.50
2023-09-20T08:44:49.644Z,24.10
2023-09-20T08:47:59.454Z,23.70
2023-09-20T08:51:04.158Z,23.20
2023-09-20T08:54:11.947Z,23.40
2023-09-20T08:57:17.478Z,23.50
2023-09-20T09:00:06.828Z,23.20
2023-09-20T09:02:55.153Z,23.30
2023-09-20T09:05:41.619Z,23.50
2023-09-20T09:08:28.004Z,23.40
2023-09-20T09:11:16.260Z,23.30
2023-09-20T09:14:01.752Z,23.20
2023-09-20T09:16:47.807Z,23.10
2023-09-20T09:19:33.806Z,23.20
2023-09-20T09:22:22.455Z,23.00
2023-09-20T09:25:16.192Z,23.30
2023-09-20T09:28:03.453Z,22.90
2023-09-20T09:30:51.109Z,22.90
2023-09-20T09:33:37.818Z,22.90
2023-09-20T09:36:24.211Z,23.30
2023-09-20T09:39:24.302Z,23.60
2023-09-20T09:42:25.485Z,23.90
2023-09-20T09:45:13.861Z,24.30
2023-09-20T09:48:05.112Z,24.40
2023-09-20T09:50:54.218Z,24.30
2023-09-20T09:53:43.083Z,24.30
2023-09-20T09:56:28.878Z,24.30
2023-09-20T09:59:15.489Z,24.60
2023-09-20T10:02:04.720Z,24.90
2023-09-20T10:04:54.607Z,25.20
2023-09-20T10:07:42.656Z,25.50
2023-09-20T10:10:28.822Z,25.00
2023-09-20T10:13:17.630Z,24.70
2023-09-20T10:16:05.990Z,24.60
2023-09-20T10:19:01.969Z,24.70
2023-09-20T10:22:14.655Z,24.80
2023-09-20T10:25:01.932Z,24.90
2023-09-20T10:27:53.636Z,25.70
2023-09-20T10:30:57.392Z,26.40
2023-09-20T10:33:47.248Z,26.60
2023-09-20T10:36:36.501Z,26.70
2023-09-20T10:39:24.148Z,27.40
2023-09-20T10:42:13.919Z,28.10
2023-09-20T10:45:06.644Z,28.50
2023-09-20T10:47:54.027Z,28.60
2023-09-20T10:50:52.575Z,28.20
2023-09-20T10:53:57.716Z,27.90
2023-09-20T10:57:08.857Z,27.80
2023-09-20T10:59:55.221Z,27.20
2023-09-20T11:02:41.707Z,27.40
2023-09-20T11:05:29.629Z,27.50
2023-09-20T11:08:16.625Z,28.00
2023-09-20T11:11:07.889Z,27.50
2023-09-20T11:13:54.966Z,27.20
2023-09-20T11:16:42.926Z,27.20
2023-09-20T11:19:29.663Z,27.50
2023-09-20T11:22:15.853Z,28.30
2023-09-20T11:25:04.386Z,28.70
2023-09-20T11:27:52.143Z,28.40
2023-09-20T11:30:38.226Z,28.30
2023-09-20T11:33:28.805Z,27.50
2023-09-20T11:36:20.488Z,28.10
2023-09-20T11:39:07.237Z,28.90
2023-09-20T11:41:52.783Z,29.80
2023-09-20T11:44:40.813Z,29.80
2023-09-20T11:47:30.357Z,29.00
2023-09-20T11:50:16.956Z,28.60
2023-09-20T11:53:03.409Z,28.80
2023-09-20T11:55:49.406Z,29.10
2023-09-20T11:58:37.831Z,29.20
2023-09-20T12:01:26.863Z,28.70
2023-09-20T12:04:14.860Z,28.40
2023-09-20T12:07:00.427Z,28.30
2023-09-20T12:09:46.300Z,28.80
2023-09-20T12:12:33.182Z,29.40
2023-09-20T12:15:19.553Z,29.80
2023-09-20T12:18:09.307Z,29.10
2023-09-20T12:20:56.524Z,29.50
2023-09-20T12:23:42.623Z,29.20
2023-09-20T12:26:29.703Z,29.00
2023-09-20T12:29:15.336Z,29.00
2023-09-20T12:32:01.540Z,28.70
2023-09-20T12:34:51.158Z,28.00
2023-09-20T12:37:36.704Z,28.20
2023-09-20T12:40:25.718Z,28.80
2023-09-20T12:43:11.289Z,29.60
2023-09-20T12:45:58.545Z,29.40
2023-09-20T12:48:45.852Z,29.10
2023-09-20T12:51:33.167Z,29.00
2023-09-20T12:54:18.885Z,29.10
2023-09-20T12:57:04.742Z,29.00
2023-09-20T12:59:50.193Z,29.30
2023-09-20T13:02:36.232Z,29.40
2023-09-20T13:05:23.893Z,29.00
2023-09-20T13:08:11.933Z,28.60
2023-09-20T13:10:58.990Z,28.90
2023-09-20T13:13:45.020Z,29.20
2023-09-20T13:16:30.992Z,28.80
2023-09-20T13:19:16.962Z,28.70
2023-09-20T13:22:03.124Z,27.90
2023-09-20T13:24:53.571Z,27.40
2023-09-20T13:27:40.851Z,27.00
2023-09-20T13:30:27.812Z,26.90
2023-09-20T13:33:14.114Z,26.80
2023-09-20T13:36:00.703Z,26.90
2023-09-20T13:38:47.453Z,26.90
2023-09-20T13:41:34.892Z,26.70
2023-09-20T13:44:20.664Z,26.20
2023-09-20T13:47:13.622Z,26.10
2023-09-20T13:50:14.064Z,25.70
2023-09-20T13:53:00.087Z,25.70
2023-09-20T13:55:47.570Z,25.90
2023-09-20T13:58:36.918Z,25.60
2023-09-20T14:01:23.208Z,25.40
2023-09-20T14:04:10.951Z,25.20
2023-09-20T14:06:56.878Z,25.00
2023-09-20T14:09:45.813Z,25.20
2023-09-20T14:12:31.881Z,25.30
2023-09-20T14:15:23.653Z,25.20
2023-09-20T14:18:09.759Z,25.20
2023-09-20T14:20:56.082Z,25.20
2023-09-20T14:23:42.490Z,25.20
2023-09-20T14:26:29.088Z,25.00
2023-09-20T14:29:14.943Z,25.10
2023-09-20T14:32:01.771Z,25.30
2023-09-20T14:34:47.682Z,25.30
2023-09-20T14:37:33.203Z,25.10
2023-09-20T14:40:22.042Z,25.10
2023-09-20T14:43:09.735Z,24.80
2023-09-20T14:45:55.672Z,25.00
2023-09-20T14:48:42.997Z,25.30
2023-09-20T14:51:29.379Z,25.30
2023-09-20T14:54:15.511Z,25.10
2023-09-20T14:57:03.861Z,25.00
2023-09-20T14:59:54.305Z,25.00
2023-09-20T15:02:39.977Z,25.20
2023-09-20T15:05:27.556Z,24.90
2023-09-20T15:08:14.661Z,24.80
2023-09-20T15:11:00.647Z,25.00
2023-09-20T15:13:46.777Z,25.10
2023-09-20T15:16:32.442Z,24.90
2023-09-20T15:19:18.139Z,24.90
2023-09-20T15:22:07.771Z,24.90
2023-09-20T15:24:53.788Z,24.60
2023-09-20T15:27:41.267Z,24.70
2023-09-20T15:30:31.009Z,24.70
2023-09-20T15:33:23.829Z,24.60
2023-09-20T15:36:09.969Z,24.50
2023-09-20T15:38:58.165Z,24.50
2023-09-20T15:41:46.893Z,24.50
2023-09-20T15:44:32.997Z,24.10
2023-09-20T15:47:19.710Z,24.40
2023-09-20T15:50:06.775Z,24.40
2023-09-20T15:52:52.840Z,24.60
2023-09-20T15:55:41.005Z,24.60
2023-09-20T15:58:27.543Z,24.50
2023-09-20T16:01:17.674Z,24.90
2023-09-20T16:04:09.299Z,24.80
2023-09-20T16:06:55.479Z,24.60
2023-09-20T16:09:40.868Z,24.80
2023-09-20T16:12:28.172Z,24.90
2023-09-20T16:15:15.450Z,25.20
2023-09-20T16:18:04.518Z,25.00
2023-09-20T16:20:50.323Z,25.20
2023-09-20T16:23:36.335Z,25.00
2023-09-20T16:26:22.229Z,24.70
2023-09-20T16:29:12.166Z,24.90
2023-09-20T16:31:57.795Z,25.00
2023-09-20T16:34:44.991Z,24.90
2023-09-20T16:37:31.916Z,24.90
2023-09-20T16:40:20.002Z,24.40
2023-09-20T16:43:05.929Z,24.40
2023-09-20T16:45:52.855Z,24.30
2023-09-20T16:48:39.109Z,24.40
2023-09-20T16:51:25.163Z,24.50
2023-09-20T16:54:10.884Z,24.50
2023-09-20T16:56:57.379Z,24.60
2023-09-20T16:59:44.252Z,24.40
2023-09-20T17:02:32.053Z,24.40
2023-09-20T17:05:19.095Z,24.00
2023-09-20T17:08:07.315Z,24.00
2023-09-20T17:10:53.064Z,24.10
2023-09-20T17:13:38.957Z,24.10
2023-09-20T17:16:25.044Z,24.10
2023-09-20T17:19:12.386Z,24.20
2023-09-20T17:22:04.062Z,23.90
2023-09-20T17:24:50.211Z,24.10
2023-09-20T17:27:36.749Z,24.10
2023-09-20T17:30:22.697Z,24.10
2023-09-20T17:33:08.475Z,24.20
2023-09-20T17:36:01.063Z,23.90
2023-09-20T17:38:47.339Z,23.90
2023-09-20T17:41:33.487Z,23.70
2023-09-20T17:44:19.854Z,23.70
2023-09-20T17:47:05.680Z,23.70
2023-09-20T17:49:52.704Z,23.50
2023-09-20T17:52:41.840Z,23.60
2023-09-20T17:55:28.504Z,23.40
2023-09-20T17:58:14.607Z,23.40
2023-09-20T18:01:00.389Z,23.40
2023-09-20T18:03:47.032Z,23.20
2023-09-20T18:06:33.208Z,23.30
2023-09-20T18:09:20.684Z,23.20
2023-09-20T18:12:07.019Z,23.10
2023-09-20T18:14:52.986Z,23.20
2023-09-20T18:17:44.888Z,23.20
2023-09-20T18:20:30.590Z,23.30
2023-09-20T18:23:16.437Z,23.10
2023-09-20T18:26:04.390Z,22.90
2023-09-20T18:28:50.401Z,23.00
2023-09-20T18:31:37.686Z,23.00
2023-09-20T18:34:23.697Z,23.10
2023-09-20T18:37:09.946Z,23.10
2023-09-20T18:39:56.224Z,23.20
2023-09-20T18:42:44.467Z,23.00
2023-09-20T18:45:30.582Z,22.80
2023-09-20T18:48:18.817Z,22.80
2023-09-20T18:51:07.557Z,22.70
2023-09-20T18:53:53.592Z,22.70
2023-09-20T18:56:39.504Z,22.70
2023-09-20T18:59:26.323Z,22.70
2023-09-20T19:02:12.257Z,22.80
2023-09-20T19:04:58.313Z,22.80
2023-09-20T19:07:48.201Z,22.70
2023-09-20T19:10:35.181Z,22.90
2023-09-20T19:13:24.933Z,22.80
2023-09-20T19:16:16.134Z,22.80
2023-09-20T19:19:02.444Z,22.80
2023-09-20T19:21:48.053Z,22.70
2023-09-20T19:24:34.997Z,22.50
2023-09-20T19:27:25.975Z,22.50
2023-09-20T19:30:13.109Z,22.40
2023-09-20T19:33:00.256Z,22.40
2023-09-20T19:35:49.785Z,22.40
2023-09-20T19:38:37.073Z,22.30
2023-09-20T19:41:23.424Z,22.30
2023-09-20T19:44:09.423Z,22.20
2023-09-20T19:46:55.523Z,22.40
2023-09-20T19:49:42.295Z,22.40
2023-09-20T19:52:28.226Z,22.40
2023-09-20T19:55:14.167Z,22.10
2023-09-20T19:58:00.440Z,22.20
2023-09-20T20:00:47.965Z,22.40
2023-09-20T20:03:33.676Z,22.40
2023-09-20T20:06:20.653Z,22.10
2023-09-20T20:09:07.933Z,22.20
2023-09-20T20:11:54.051Z,22.20
2023-09-20T20:14:41.334Z,22.10
2023-09-20T20:17:27.796Z,22.00
2023-09-20T20:20:16.871Z,22.00
2023-09-20T20:23:06.392Z,21.90
2023-09-20T20:25:54.220Z,21.90
2023-09-20T20:28:41.736Z,21.80
2023-09-20T20:31:27.821Z,21.80
2023-09-20T20:34:13.525Z,21.70
2023-09-20T20:36:59.629Z,21.70
2023-09-20T20:39:46.479Z,21.50
2023-09-20T20:42:33.253Z,21.60
2023-09-20T20:45:20.887Z,21.30
2023-09-20T20:48:07.591Z,21.50
2023-09-20T20:50:53.921Z,21.40
2023-09-20T20:53:40.131Z,21.60
2023-09-20T20:56:30.238Z,21.50
2023-09-20T20:59:21.952Z,21.30
2023-09-20T21:02:08.606Z,21.60
2023-09-20T21:04:54.201Z,21.60
2023-09-20T21:07:39.993Z,21.40
2023-09-20T21:10:25.999Z,21.50
2023-09-20T21:13:14.237Z,21.70
2023-09-20T21:16:00.515Z,21.60
2023-09-20T21:18:48.852Z,21.60
2023-09-20T21:21:35.315Z,21.60
2023-09-20T21:24:21.339Z,21.50
2023-09-20T21:27:07.582Z,21.50
2023-09-20T21:29:54.858Z,21.60
2023-09-20T21:32:40.745Z,21.40
2023-09-20T21:35:27.447Z,21.60
2023-09-20T21:38:13.199Z,21.90
2023-09-20T21:40:59.033Z,21.80
2023-09-20T21:43:44.780Z,21.60
2023-09-20T21:46:32.008Z,21.60
2023-09-20T21:49:17.874Z,21.60
2023-09-20T21:52:03.630Z,21.60
2023-09-20T21:54:49.222Z,21.30
2023-09-20T21:57:34.897Z,21.30
2023-09-20T22:00:21.242Z,21.60
2023-09-20T22:03:08.965Z,21.50
2023-09-20T22:05:55.126Z,21.50
2023-09-20T22:08:42.991Z,21.20
2023-09-20T22:11:29.523Z,21.00
2023-09-20T22:14:14.864Z,21.30
2023-09-20T22:17:01.338Z,21.50
2023-09-20T22:19:48.751Z,21.30
2023-09-20T22:22:34.197Z,21.40
2023-09-20T22:25:20.972Z,21.30
2023-09-20T22:28:07.054Z,21.30
2023-09-20T22:30:53.060Z,21.60
2023-09-20T22:33:40.026Z,21.60
2023-09-20T22:36:27.219Z,21.50
2023-09-20T22:39:13.214Z,21.50
2023-09-20T22:41:59.264Z,21.30
2023-09-20T22:44:45.910Z,21.50
2023-09-20T22:47:32.104Z,21.50
2023-09-20T22:50:18.797Z,21.50
2023-09-20T22:53:07.358Z,21.80
2023-09-20T22:55:53.643Z,21.70
2023-09-20T22:58:39.884Z,21.60
2023-09-20T23:01:25.937Z,21.80
2023-09-20T23:04:12.428Z,21.80
2023-09-20T23:06:58.509Z,21.80
2023-09-20T23:09:45.652Z,21.80
2023-09-20T23:12:31.658Z,21.90
2023-09-20T23:15:17.837Z,21.80
2023-09-20T23:18:04.392Z,21.70
2023-09-20T23:20:51.683Z,21.50
2023-09-20T23:23:37.636Z,21.80
2023-09-20T23:26:24.344Z,21.60
2023-09-20T23:29:09.885Z,21.40
2023-09-20T23:31:58.826Z,21.50
2023-09-20T23:34:44.718Z,21.70
2023-09-20T23:37:30.579Z,21.80
2023-09-20T23:40:18.525Z,21.90
2023-09-20T23:43:05.983Z,21.80
2023-09-20T23:45:52.158Z,21.90
2023-09-20T23:48:38.752Z,21.90
2023-09-20T23:51:25.359Z,21.80
2023-09-20T23:54:11.315Z,21.80
2023-09-20T23:56:57.383Z,21.90
2023-09-20T23:59:48.169Z,21.90
